Roxbury, New Hampshire
Current Conditions -  °F | °C
As of 6:15 PM on Friday 19 Dec 2014 (Local Time) from KEEN Reporting Station
Overcast Overcast  
Wind Chill: 24°   Ceiling: 2700
Heat Index: 30°   Visibility: 10mi
Dew Point: 19°   Wind: 6mph
Humidity: 64%   Direction: 330°NNW
Pressure: 30.06"   Gusts: NA
Location:  42.9764°N, 72.2744°W
Report Text: KEEN 192315Z AUTO 33005KT 10SM OVC027 M01/M07 A3006 RMK AO1
Loading
Personal Weather Stations






























Interactive Weather Map New forecast layout! Learn more

10-Day Weather Forecast

Advertisements
Track Severe Weather on mobile